sensor_id;sensor_type;location;lat;lon;timestamp;pressure;altitude;pressure_sealevel;temperature;humidity
596;BME280;19946;49.306;11.350;2023-06-22T00:01:27;96538.84;;;16.43;100.00
596;BME280;19946;49.306;11.350;2023-06-22T00:04:27;96524.28;;;16.32;100.00
596;BME280;19946;49.306;11.350;2023-06-22T00:07:28;96521.81;;;16.47;100.00
596;BME280;19946;49.306;11.350;2023-06-22T00:10:28;96527.56;;;16.51;100.00
596;BME280;19946;49.306;11.350;2023-06-22T00:13:28;96524.09;;;16.34;100.00
596;BME280;19946;49.306;11.350;2023-06-22T00:16:29;96530.50;;;16.31;100.00
596;BME280;19946;49.306;11.350;2023-06-22T00:19:29;96544.06;;;16.43;100.00
596;BME280;19946;49.306;11.350;2023-06-22T00:22:30;96532.28;;;16.31;100.00
596;BME280;19946;49.306;11.350;2023-06-22T00:25:30;96530.50;;;16.31;100.00
596;BME280;19946;49.306;11.350;2023-06-22T00:28:30;96553.00;;;16.24;100.00
596;BME280;19946;49.306;11.350;2023-06-22T00:31:31;96551.56;;;16.38;100.00
596;BME280;19946;49.306;11.350;2023-06-22T00:34:31;96521.03;;;16.22;100.00
596;BME280;19946;49.306;11.350;2023-06-22T00:37:33;96549.44;;;16.41;100.00
596;BME280;19946;49.306;11.350;2023-06-22T00:40:36;96547.78;;;16.16;100.00
596;BME280;19946;49.306;11.350;2023-06-22T00:43:36;96551.88;;;16.19;100.00
596;BME280;19946;49.306;11.350;2023-06-22T00:46:37;96547.47;;;16.11;100.00
596;BME280;19946;49.306;11.350;2023-06-22T00:49:37;96549.44;;;16.17;100.00
596;BME280;19946;49.306;11.350;2023-06-22T00:52:39;96530.47;;;16.15;100.00
596;BME280;19946;49.306;11.350;2023-06-22T00:55:45;96533.41;;;16.12;100.00
596;BME280;19946;49.306;11.350;2023-06-22T00:58:46;96558.69;;;15.87;100.00
596;BME280;19946;49.306;11.350;2023-06-22T01:01:47;96530.56;;;15.65;100.00
596;BME280;19946;49.306;11.350;2023-06-22T01:04:47;96560.13;;;15.74;100.00
596;BME280;19946;49.306;11.350;2023-06-22T01:07:55;96566.31;;;15.81;100.00
596;BME280;19946;49.306;11.350;2023-06-22T01:11:04;96569.44;;;15.84;100.00
596;BME280;19946;49.306;11.350;2023-06-22T01:14:13;96494.75;;;15.49;100.00
596;BME280;19946;49.306;11.350;2023-06-22T01:17:16;96534.47;;;15.69;100.00
596;BME280;19946;49.306;11.350;2023-06-22T01:20:20;96547.06;;;15.74;100.00
596;BME280;19946;49.306;11.350;2023-06-22T01:30:23;96499.28;;;15.31;100.00
596;BME280;19946;49.306;11.350;2023-06-22T01:33:26;96489.50;;;15.33;100.00
596;BME280;19946;49.306;11.350;2023-06-22T01:36:28;96503.91;;;15.53;100.00
596;BME280;19946;49.306;11.350;2023-06-22T01:39:30;96477.94;;;15.44;100.00
596;BME280;19946;49.306;11.350;2023-06-22T01:42:31;96483.16;;;15.44;100.00
596;BME280;19946;49.306;11.350;2023-06-22T01:45:33;96491.09;;;15.68;100.00
596;BME280;19946;49.306;11.350;2023-06-22T01:48:34;96498.06;;;15.59;100.00
596;BME280;19946;49.306;11.350;2023-06-22T01:51:35;96501.53;;;15.68;100.00
596;BME280;19946;49.306;11.350;2023-06-22T01:54:37;96490.75;;;15.71;100.00
596;BME280;19946;49.306;11.350;2023-06-22T01:57:38;96481.13;;;15.72;100.00
596;BME280;19946;49.306;11.350;2023-06-22T02:00:44;96507.06;;;15.57;100.00
596;BME280;19946;49.306;11.350;2023-06-22T02:03:54;96466.91;;;15.58;100.00
596;BME280;19946;49.306;11.350;2023-06-22T02:06:58;96463.56;;;15.90;100.00
596;BME280;19946;49.306;11.350;2023-06-22T02:10:01;96499.94;;;16.40;100.00
596;BME280;19946;49.306;11.350;2023-06-22T02:13:05;96493.06;;;16.71;100.00
596;BME280;19946;49.306;11.350;2023-06-22T02:16:07;96483.94;;;16.75;100.00
596;BME280;19946;49.306;11.350;2023-06-22T02:19:07;96511.59;;;17.17;100.00
596;BME280;19946;49.306;11.350;2023-06-22T02:22:08;96465.75;;;17.21;100.00
596;BME280;19946;49.306;11.350;2023-06-22T02:25:08;96451.69;;;17.22;100.00
596;BME280;19946;49.306;11.350;2023-06-22T02:28:09;96477.25;;;17.51;100.00
596;BME280;19946;49.306;11.350;2023-06-22T02:31:09;96514.31;;;17.71;100.00
596;BME280;19946;49.306;11.350;2023-06-22T02:34:09;96525.53;;;17.48;100.00
596;BME280;19946;49.306;11.350;2023-06-22T02:37:10;96488.66;;;16.72;100.00
596;BME280;19946;49.306;11.350;2023-06-22T02:40:14;96528.38;;;16.43;100.00
596;BME280;19946;49.306;11.350;2023-06-22T02:43:14;96490.47;;;16.06;100.00
596;BME280;19946;49.306;11.350;2023-06-22T02:46:15;96510.09;;;16.11;100.00
596;BME280;19946;49.306;11.350;2023-06-22T02:49:16;96498.81;;;16.10;100.00
596;BME280;19946;49.306;11.350;2023-06-22T02:52:17;96503.88;;;16.20;100.00
596;BME280;19946;49.306;11.350;2023-06-22T02:55:17;96510.41;;;16.16;100.00
596;BME280;19946;49.306;11.350;2023-06-22T02:58:25;96519.72;;;16.18;100.00
596;BME280;19946;49.306;11.350;2023-06-22T03:01:27;96520.19;;;15.89;100.00
596;BME280;19946;49.306;11.350;2023-06-22T03:04:28;96564.75;;;15.96;100.00
596;BME280;19946;49.306;11.350;2023-06-22T03:07:28;96555.75;;;15.48;100.00
596;BME280;19946;49.306;11.350;2023-06-22T03:10:30;96563.00;;;15.62;100.00
596;BME280;19946;49.306;11.350;2023-06-22T03:13:30;96574.28;;;15.71;100.00
596;BME280;19946;49.306;11.350;2023-06-22T03:16:31;96584.44;;;15.74;100.00
596;BME280;19946;49.306;11.350;2023-06-22T03:19:32;96592.94;;;15.84;100.00
596;BME280;19946;49.306;11.350;2023-06-22T03:22:32;96587.19;;;15.64;100.00
596;BME280;19946;49.306;11.350;2023-06-22T03:25:32;96618.59;;;15.89;100.00
596;BME280;19946;49.306;11.350;2023-06-22T03:28:34;96601.66;;;15.59;100.00
596;BME280;19946;49.306;11.350;2023-06-22T03:31:35;96601.59;;;15.51;100.00
596;BME280;19946;49.306;11.350;2023-06-22T03:34:35;96610.16;;;15.61;100.00
596;BME280;19946;49.306;11.350;2023-06-22T03:37:36;96614.91;;;15.65;100.00
596;BME280;19946;49.306;11.350;2023-06-22T03:40:36;96628.28;;;15.70;100.00
596;BME280;19946;49.306;11.350;2023-06-22T03:43:37;96566.16;;;15.40;100.00
596;BME280;19946;49.306;11.350;2023-06-22T03:46:38;96577.59;;;15.47;100.00
596;BME280;19946;49.306;11.350;2023-06-22T03:49:38;96587.06;;;15.48;100.00
596;BME280;19946;49.306;11.350;2023-06-22T03:52:39;96603.63;;;15.57;100.00
596;BME280;19946;49.306;11.350;2023-06-22T03:55:52;96567.91;;;15.57;100.00
596;BME280;19946;49.306;11.350;2023-06-22T03:58:52;96559.44;;;15.63;100.00
596;BME280;19946;49.306;11.350;2023-06-22T04:01:53;96566.00;;;15.76;100.00
596;BME280;19946;49.306;11.350;2023-06-22T04:04:53;96560.47;;;15.79;100.00
596;BME280;19946;49.306;11.350;2023-06-22T04:07:53;96574.84;;;15.91;100.00
596;BME280;19946;49.306;11.350;2023-06-22T04:10:54;96567.66;;;15.93;100.00
596;BME280;19946;49.306;11.350;2023-06-22T04:13:54;96540.88;;;15.91;100.00
596;BME280;19946;49.306;11.350;2023-06-22T04:16:55;96540.78;;;16.09;100.00
596;BME280;19946;49.306;11.350;2023-06-22T04:19:56;96519.53;;;16.12;100.00
596;BME280;19946;49.306;11.350;2023-06-22T04:22:56;96527.06;;;16.39;100.00
596;BME280;19946;49.306;11.350;2023-06-22T04:25:56;96544.06;;;16.75;100.00
596;BME280;19946;49.306;11.350;2023-06-22T04:28:57;96546.63;;;17.00;100.00
596;BME280;19946;49.306;11.350;2023-06-22T04:31:58;96539.84;;;17.30;100.00
596;BME280;19946;49.306;11.350;2023-06-22T04:35:03;96526.06;;;17.36;100.00
596;BME280;19946;49.306;11.350;2023-06-22T04:38:07;96488.53;;;17.51;100.00
596;BME280;19946;49.306;11.350;2023-06-22T04:41:07;96471.84;;;17.83;100.00
596;BME280;19946;49.306;11.350;2023-06-22T04:44:14;96503.22;;;18.37;100.00
596;BME280;19946;49.306;11.350;2023-06-22T04:47:23;96505.22;;;18.50;100.00
596;BME280;19946;49.306;11.350;2023-06-22T04:50:23;96512.91;;;18.89;100.00
596;BME280;19946;49.306;11.350;2023-06-22T04:53:24;96505.03;;;19.18;100.00
596;BME280;19946;49.306;11.350;2023-06-22T04:56:29;96480.69;;;19.10;100.00
596;BME280;19946;49.306;11.350;2023-06-22T04:59:31;96481.94;;;19.43;100.00
596;BME280;19946;49.306;11.350;2023-06-22T05:02:31;96455.28;;;19.10;100.00
596;BME280;19946;49.306;11.350;2023-06-22T05:05:33;96476.31;;;19.46;100.00
596;BME280;19946;49.306;11.350;2023-06-22T05:08:33;96498.22;;;19.39;100.00
596;BME280;19946;49.306;11.350;2023-06-22T05:11:33;96472.88;;;19.46;100.00
596;BME280;19946;49.306;11.350;2023-06-22T05:14:33;96449.84;;;19.48;100.00
596;BME280;19946;49.306;11.350;2023-06-22T05:17:35;96474.19;;;19.92;100.00
596;BME280;19946;49.306;11.350;2023-06-22T05:20:35;96476.13;;;20.26;100.00
596;BME280;19946;49.306;11.350;2023-06-22T05:23:36;96453.34;;;20.12;100.00
596;BME280;19946;49.306;11.350;2023-06-22T05:26:36;96451.28;;;20.29;100.00
596;BME280;19946;49.306;11.350;2023-06-22T05:29:37;96475.44;;;20.60;100.00
596;BME280;19946;49.306;11.350;2023-06-22T05:32:37;96452.28;;;20.49;100.00
596;BME280;19946;49.306;11.350;2023-06-22T05:35:38;96483.81;;;21.05;100.00
596;BME280;19946;49.306;11.350;2023-06-22T05:38:39;96449.06;;;20.88;100.00
596;BME280;19946;49.306;11.350;2023-06-22T05:41:39;96472.38;;;20.91;100.00
596;BME280;19946;49.306;11.350;2023-06-22T05:44:40;96470.19;;;21.29;100.00
596;BME280;19946;49.306;11.350;2023-06-22T05:47:40;96461.69;;;21.34;100.00
596;BME280;19946;49.306;11.350;2023-06-22T05:50:41;96439.44;;;21.02;100.00
596;BME280;19946;49.306;11.350;2023-06-22T05:53:42;96414.03;;;21.22;100.00
596;BME280;19946;49.306;11.350;2023-06-22T05:56:42;96474.84;;;21.81;100.00
596;BME280;19946;49.306;11.350;2023-06-22T05:59:42;96453.91;;;21.60;100.00
596;BME280;19946;49.306;11.350;2023-06-22T06:02:43;96454.94;;;21.72;100.00
596;BME280;19946;49.306;11.350;2023-06-22T06:05:44;96460.13;;;21.46;100.00
596;BME280;19946;49.306;11.350;2023-06-22T06:08:45;96451.72;;;21.83;100.00
596;BME280;19946;49.306;11.350;2023-06-22T06:11:45;96456.91;;;21.57;100.00
596;BME280;19946;49.306;11.350;2023-06-22T06:14:46;96446.94;;;21.39;100.00
596;BME280;19946;49.306;11.350;2023-06-22T06:17:52;96440.28;;;21.50;100.00
596;BME280;19946;49.306;11.350;2023-06-22T06:20:52;96413.09;;;21.43;100.00
596;BME280;19946;49.306;11.350;2023-06-22T06:23:53;96436.09;;;21.89;100.00
596;BME280;19946;49.306;11.350;2023-06-22T06:26:53;96446.72;;;22.21;100.00
596;BME280;19946;49.306;11.350;2023-06-22T06:29:53;96436.31;;;22.73;100.00
596;BME280;19946;49.306;11.350;2023-06-22T06:32:54;96415.03;;;22.61;100.00
596;BME280;19946;49.306;11.350;2023-06-22T06:35:54;96443.66;;;22.71;100.00
596;BME280;19946;49.306;11.350;2023-06-22T06:38:55;96456.03;;;22.83;100.00
596;BME280;19946;49.306;11.350;2023-06-22T06:41:57;96410.00;;;22.33;100.00
596;BME280;19946;49.306;11.350;2023-06-22T06:44:57;96454.59;;;22.94;100.00
596;BME280;19946;49.306;11.350;2023-06-22T06:47:58;96424.91;;;23.12;100.00
596;BME280;19946;49.306;11.350;2023-06-22T06:50:58;96428.63;;;23.42;100.00
596;BME280;19946;49.306;11.350;2023-06-22T06:53:58;96435.59;;;23.75;100.00
596;BME280;19946;49.306;11.350;2023-06-22T06:56:59;96442.22;;;23.52;100.00
596;BME280;19946;49.306;11.350;2023-06-22T06:59:59;96403.63;;;23.38;100.00
596;BME280;19946;49.306;11.350;2023-06-22T07:03:00;96425.00;;;24.06;100.00
596;BME280;19946;49.306;11.350;2023-06-22T07:06:00;96422.03;;;24.52;100.00
596;BME280;19946;49.306;11.350;2023-06-22T07:09:00;96417.69;;;24.58;100.00
596;BME280;19946;49.306;11.350;2023-06-22T07:12:01;96429.84;;;23.84;100.00
596;BME280;19946;49.306;11.350;2023-06-22T07:15:05;96420.94;;;24.35;100.00
596;BME280;19946;49.306;11.350;2023-06-22T07:18:08;96397.63;;;24.68;100.00
596;BME280;19946;49.306;11.350;2023-06-22T07:21:08;96425.72;;;24.88;100.00
596;BME280;19946;49.306;11.350;2023-06-22T07:24:09;96371.28;;;24.92;100.00
596;BME280;19946;49.306;11.350;2023-06-22T07:27:09;96361.75;;;24.54;100.00
596;BME280;19946;49.306;11.350;2023-06-22T07:30:12;96419.66;;;25.24;100.00
596;BME280;19946;49.306;11.350;2023-06-22T07:33:13;96387.91;;;25.35;100.00
596;BME280;19946;49.306;11.350;2023-06-22T07:36:13;96391.97;;;25.38;100.00
596;BME280;19946;49.306;11.350;2023-06-22T07:39:13;96411.13;;;26.11;100.00
596;BME280;19946;49.306;11.350;2023-06-22T07:42:14;96415.84;;;26.09;100.00
596;BME280;19946;49.306;11.350;2023-06-22T07:45:18;96422.81;;;26.22;100.00
596;BME280;19946;49.306;11.350;2023-06-22T07:48:22;96423.97;;;26.26;100.00
596;BME280;19946;49.306;11.350;2023-06-22T07:51:23;96376.94;;;25.92;100.00
596;BME280;19946;49.306;11.350;2023-06-22T07:54:23;96385.41;;;26.24;100.00
596;BME280;19946;49.306;11.350;2023-06-22T07:57:24;96386.72;;;26.44;100.00
596;BME280;19946;49.306;11.350;2023-06-22T08:00:33;96398.50;;;26.37;100.00
596;BME280;19946;49.306;11.350;2023-06-22T08:03:34;96372.78;;;26.49;98.72
596;BME280;19946;49.306;11.350;2023-06-22T08:06:34;96392.94;;;26.85;91.53
596;BME280;19946;49.306;11.350;2023-06-22T08:09:35;96405.91;;;26.93;100.00
596;BME280;19946;49.306;11.350;2023-06-22T08:12:35;96378.09;;;26.49;87.33
596;BME280;19946;49.306;11.350;2023-06-22T08:15:36;96414.19;;;26.97;87.80
596;BME280;19946;49.306;11.350;2023-06-22T08:18:36;96407.38;;;26.89;79.47
596;BME280;19946;49.306;11.350;2023-06-22T08:21:36;96377.53;;;27.10;81.51
596;BME280;19946;49.306;11.350;2023-06-22T08:24:37;96374.59;;;27.35;83.76
596;BME280;19946;49.306;11.350;2023-06-22T08:27:38;96364.13;;;27.45;84.14
596;BME280;19946;49.306;11.350;2023-06-22T08:30:38;96413.53;;;27.70;74.36
596;BME280;19946;49.306;11.350;2023-06-22T08:33:38;96373.19;;;28.06;69.19
596;BME280;19946;49.306;11.350;2023-06-22T08:36:39;96407.84;;;28.23;78.95
596;BME280;19946;49.306;11.350;2023-06-22T08:39:41;96401.25;;;28.14;69.24
596;BME280;19946;49.306;11.350;2023-06-22T08:42:41;96406.41;;;28.32;72.00
596;BME280;19946;49.306;11.350;2023-06-22T08:45:42;96391.03;;;28.56;64.19
596;BME280;19946;49.306;11.350;2023-06-22T08:48:42;96387.78;;;28.87;65.04
596;BME280;19946;49.306;11.350;2023-06-22T08:51:42;96394.47;;;29.12;63.39
596;BME280;19946;49.306;11.350;2023-06-22T08:54:44;96389.91;;;29.29;60.02
596;BME280;19946;49.306;11.350;2023-06-22T08:57:45;96407.31;;;29.36;58.42
596;BME280;19946;49.306;11.350;2023-06-22T09:00:45;96375.75;;;29.50;63.06
596;BME280;19946;49.306;11.350;2023-06-22T09:03:45;96391.47;;;30.00;56.64
596;BME280;19946;49.306;11.350;2023-06-22T09:06:54;96405.09;;;29.77;56.82
596;BME280;19946;49.306;11.350;2023-06-22T09:09:55;96376.72;;;29.22;55.55
596;BME280;19946;49.306;11.350;2023-06-22T09:12:57;96385.38;;;29.29;58.07
596;BME280;19946;49.306;11.350;2023-06-22T09:15:57;96375.38;;;29.63;55.57
596;BME280;19946;49.306;11.350;2023-06-22T09:18:57;96390.66;;;29.73;54.43
596;BME280;19946;49.306;11.350;2023-06-22T09:21:58;96332.53;;;29.26;53.20
596;BME280;19946;49.306;11.350;2023-06-22T09:24:58;96381.41;;;29.81;56.80
596;BME280;19946;49.306;11.350;2023-06-22T09:28:00;96368.13;;;29.64;56.28
596;BME280;19946;49.306;11.350;2023-06-22T09:31:00;96364.97;;;29.94;54.28
596;BME280;19946;49.306;11.350;2023-06-22T09:34:00;96381.59;;;29.47;52.88
596;BME280;19946;49.306;11.350;2023-06-22T09:37:01;96361.50;;;29.93;53.84
596;BME280;19946;49.306;11.350;2023-06-22T09:40:02;96361.59;;;29.76;54.52
596;BME280;19946;49.306;11.350;2023-06-22T09:43:08;96335.34;;;30.27;53.36
596;BME280;19946;49.306;11.350;2023-06-22T09:46:10;96356.44;;;30.66;53.96
596;BME280;19946;49.306;11.350;2023-06-22T09:49:10;96329.53;;;30.35;51.68
596;BME280;19946;49.306;11.350;2023-06-22T09:52:10;96354.84;;;30.28;52.95
596;BME280;19946;49.306;11.350;2023-06-22T09:55:11;96338.22;;;30.21;53.06
596;BME280;19946;49.306;11.350;2023-06-22T09:58:11;96329.59;;;30.45;50.09
596;BME280;19946;49.306;11.350;2023-06-22T10:01:12;96333.22;;;31.29;50.51
596;BME280;19946;49.306;11.350;2023-06-22T10:04:16;96289.31;;;31.14;49.00
596;BME280;19946;49.306;11.350;2023-06-22T10:07:16;96313.19;;;30.32;50.42
596;BME280;19946;49.306;11.350;2023-06-22T10:10:17;96304.09;;;30.28;50.47
596;BME280;19946;49.306;11.350;2023-06-22T10:13:17;96287.81;;;29.92;52.78
596;BME280;19946;49.306;11.350;2023-06-22T10:16:18;96298.22;;;30.26;53.52
596;BME280;19946;49.306;11.350;2023-06-22T10:19:19;96291.28;;;30.30;52.29
596;BME280;19946;49.306;11.350;2023-06-22T10:22:19;96273.97;;;30.37;51.03
596;BME280;19946;49.306;11.350;2023-06-22T10:25:19;96320.25;;;30.48;51.26
596;BME280;19946;49.306;11.350;2023-06-22T10:28:20;96285.09;;;30.66;52.75
596;BME280;19946;49.306;11.350;2023-06-22T10:31:20;96288.94;;;30.91;50.00
596;BME280;19946;49.306;11.350;2023-06-22T10:34:20;96278.13;;;31.33;49.19
596;BME280;19946;49.306;11.350;2023-06-22T10:37:21;96293.09;;;31.49;50.91
596;BME280;19946;49.306;11.350;2023-06-22T10:40:21;96290.00;;;30.37;49.79
596;BME280;19946;49.306;11.350;2023-06-22T10:43:21;96289.97;;;30.84;52.75
596;BME280;19946;49.306;11.350;2023-06-22T10:46:24;96284.78;;;31.30;50.98
596;BME280;19946;49.306;11.350;2023-06-22T10:49:24;96289.50;;;30.98;51.59
596;BME280;19946;49.306;11.350;2023-06-22T10:52:25;96273.28;;;31.25;49.10
596;BME280;19946;49.306;11.350;2023-06-22T10:55:25;96287.75;;;31.59;49.74
596;BME280;19946;49.306;11.350;2023-06-22T10:58:25;96305.75;;;32.04;49.19
596;BME280;19946;49.306;11.350;2023-06-22T11:01:26;96311.63;;;32.16;47.86
596;BME280;19946;49.306;11.350;2023-06-22T11:04:27;96316.91;;;32.67;47.11
596;BME280;19946;49.306;11.350;2023-06-22T11:07:27;96281.63;;;32.04;50.91
596;BME280;19946;49.306;11.350;2023-06-22T11:10:29;96311.63;;;32.26;45.98
596;BME280;19946;49.306;11.350;2023-06-22T11:13:29;96287.22;;;32.53;49.63
596;BME280;19946;49.306;11.350;2023-06-22T11:16:29;96321.41;;;32.97;46.07
596;BME280;19946;49.306;11.350;2023-06-22T11:19:29;96279.50;;;31.96;46.54
596;BME280;19946;49.306;11.350;2023-06-22T11:22:30;96317.44;;;32.84;46.42
596;BME280;19946;49.306;11.350;2023-06-22T11:25:33;96290.72;;;32.44;45.00
596;BME280;19946;49.306;11.350;2023-06-22T11:28:38;96301.91;;;32.66;45.85
596;BME280;19946;49.306;11.350;2023-06-22T11:31:38;96312.72;;;32.00;46.96
596;BME280;19946;49.306;11.350;2023-06-22T11:34:39;96312.97;;;31.63;46.99
596;BME280;19946;49.306;11.350;2023-06-22T11:37:39;96290.72;;;31.63;46.64
596;BME280;19946;49.306;11.350;2023-06-22T11:40:40;96311.59;;;32.52;47.24
596;BME280;19946;49.306;11.350;2023-06-22T11:43:40;96274.31;;;32.66;49.44
596;BME280;19946;49.306;11.350;2023-06-22T11:46:41;96278.63;;;33.26;44.66
596;BME280;19946;49.306;11.350;2023-06-22T11:49:41;96295.81;;;33.15;46.30
596;BME280;19946;49.306;11.350;2023-06-22T11:52:41;96284.88;;;33.06;46.00
596;BME280;19946;49.306;11.350;2023-06-22T11:55:42;96255.94;;;32.18;47.76
596;BME280;19946;49.306;11.350;2023-06-22T11:58:42;96261.75;;;32.51;47.13
596;BME280;19946;49.306;11.350;2023-06-22T12:01:42;96259.53;;;32.68;46.87
596;BME280;19946;49.306;11.350;2023-06-22T12:04:43;96253.97;;;32.54;51.90
596;BME280;19946;49.306;11.350;2023-06-22T12:07:43;96239.91;;;32.88;44.30
596;BME280;19946;49.306;11.350;2023-06-22T12:10:43;96241.63;;;32.53;46.65
596;BME280;19946;49.306;11.350;2023-06-22T12:13:44;96192.97;;;32.06;48.74
596;BME280;19946;49.306;11.350;2023-06-22T12:16:44;96216.25;;;32.95;44.83
596;BME280;19946;49.306;11.350;2023-06-22T12:19:44;96213.78;;;32.49;45.62
596;BME280;19946;49.306;11.350;2023-06-22T12:22:45;96215.47;;;32.30;45.82
596;BME280;19946;49.306;11.350;2023-06-22T12:25:45;96216.31;;;32.85;45.45
596;BME280;19946;49.306;11.350;2023-06-22T12:28:47;96203.41;;;33.36;47.24
596;BME280;19946;49.306;11.350;2023-06-22T12:31:47;96186.66;;;33.10;49.07
596;BME280;19946;49.306;11.350;2023-06-22T12:34:48;96190.47;;;32.99;44.76
596;BME280;19946;49.306;11.350;2023-06-22T12:37:48;96183.47;;;33.08;43.28
596;BME280;19946;49.306;11.350;2023-06-22T12:40:48;96171.47;;;33.34;40.39
596;BME280;19946;49.306;11.350;2023-06-22T12:43:49;96164.47;;;33.67;44.57
596;BME280;19946;49.306;11.350;2023-06-22T12:46:49;96143.31;;;33.32;44.23
596;BME280;19946;49.306;11.350;2023-06-22T12:49:50;96168.47;;;33.02;42.59
596;BME280;19946;49.306;11.350;2023-06-22T12:52:50;96157.22;;;33.39;42.74
596;BME280;19946;49.306;11.350;2023-06-22T12:55:51;96183.16;;;32.71;41.08
596;BME280;19946;49.306;11.350;2023-06-22T12:58:51;96167.69;;;32.47;43.55
596;BME280;19946;49.306;11.350;2023-06-22T13:01:51;96173.34;;;33.39;43.05
596;BME280;19946;49.306;11.350;2023-06-22T13:04:51;96175.03;;;33.88;41.19
596;BME280;19946;49.306;11.350;2023-06-22T13:07:52;96164.56;;;34.15;38.25
596;BME280;19946;49.306;11.350;2023-06-22T13:10:52;96106.94;;;33.79;38.63
596;BME280;19946;49.306;11.350;2023-06-22T13:13:52;96154.00;;;34.19;38.59
596;BME280;19946;49.306;11.350;2023-06-22T13:16:53;96133.97;;;34.11;36.98
596;BME280;19946;49.306;11.350;2023-06-22T13:19:53;96159.59;;;34.03;36.62
596;BME280;19946;49.306;11.350;2023-06-22T13:22:53;96160.44;;;34.23;38.02
596;BME280;19946;49.306;11.350;2023-06-22T13:25:55;96166.06;;;34.50;35.28
596;BME280;19946;49.306;11.350;2023-06-22T13:28:55;96153.34;;;34.32;36.28
596;BME280;19946;49.306;11.350;2023-06-22T13:31:55;96143.19;;;33.47;37.93
596;BME280;19946;49.306;11.350;2023-06-22T13:34:57;96153.63;;;33.15;38.22
596;BME280;19946;49.306;11.350;2023-06-22T13:37:57;96132.72;;;32.68;37.79
596;BME280;19946;49.306;11.350;2023-06-22T13:40:58;96129.28;;;32.62;39.16
596;BME280;19946;49.306;11.350;2023-06-22T13:43:59;96133.50;;;33.51;36.36
596;BME280;19946;49.306;11.350;2023-06-22T13:46:59;96121.31;;;32.96;37.69
596;BME280;19946;49.306;11.350;2023-06-22T13:50:00;96126.97;;;32.89;38.59
596;BME280;19946;49.306;11.350;2023-06-22T13:53:00;96130.84;;;33.46;37.44
596;BME280;19946;49.306;11.350;2023-06-22T13:56:01;96090.41;;;32.64;37.40
596;BME280;19946;49.306;11.350;2023-06-22T13:59:01;96160.38;;;32.63;39.00
596;BME280;19946;49.306;11.350;2023-06-22T14:02:01;96149.41;;;31.75;40.89
596;BME280;19946;49.306;11.350;2023-06-22T14:05:01;96144.50;;;32.17;41.35
596;BME280;19946;49.306;11.350;2023-06-22T14:08:02;96115.09;;;32.56;39.92
596;BME280;19946;49.306;11.350;2023-06-22T14:11:03;96149.88;;;33.16;37.53
596;BME280;19946;49.306;11.350;2023-06-22T14:14:03;96137.47;;;33.25;36.68
596;BME280;19946;49.306;11.350;2023-06-22T14:17:04;96147.78;;;32.63;38.32
596;BME280;19946;49.306;11.350;2023-06-22T14:20:05;96109.03;;;32.41;37.55
596;BME280;19946;49.306;11.350;2023-06-22T14:23:07;96132.38;;;33.23;36.12
596;BME280;19946;49.306;11.350;2023-06-22T14:26:08;96096.56;;;33.04;36.74
596;BME280;19946;49.306;11.350;2023-06-22T14:29:08;96108.91;;;33.05;36.95
596;BME280;19946;49.306;11.350;2023-06-22T14:32:09;96116.94;;;32.66;36.68
596;BME280;19946;49.306;11.350;2023-06-22T14:35:09;96107.84;;;33.01;37.86
596;BME280;19946;49.306;11.350;2023-06-22T14:38:09;96093.34;;;32.63;37.60
596;BME280;19946;49.306;11.350;2023-06-22T14:41:10;96080.94;;;32.33;37.93
596;BME280;19946;49.306;11.350;2023-06-22T14:44:10;96085.56;;;32.22;37.04
596;BME280;19946;49.306;11.350;2023-06-22T14:47:10;96059.56;;;32.23;37.80
596;BME280;19946;49.306;11.350;2023-06-22T14:50:10;96108.59;;;32.68;36.94
596;BME280;19946;49.306;11.350;2023-06-22T14:53:11;96087.34;;;32.81;38.91
596;BME280;19946;49.306;11.350;2023-06-22T14:56:11;96069.44;;;32.77;36.66
596;BME280;19946;49.306;11.350;2023-06-22T14:59:12;96049.94;;;32.22;36.80
596;BME280;19946;49.306;11.350;2023-06-22T15:02:13;96099.94;;;32.37;39.02
596;BME280;19946;49.306;11.350;2023-06-22T15:05:13;96055.31;;;32.07;38.35
596;BME280;19946;49.306;11.350;2023-06-22T15:08:14;96068.75;;;31.97;38.38
596;BME280;19946;49.306;11.350;2023-06-22T15:11:14;96051.09;;;31.96;39.12
596;BME280;19946;49.306;11.350;2023-06-22T15:14:14;96040.69;;;31.89;37.95
596;BME280;19946;49.306;11.350;2023-06-22T15:17:16;96033.50;;;31.69;38.13
596;BME280;19946;49.306;11.350;2023-06-22T15:20:16;96068.72;;;32.02;37.73
596;BME280;19946;49.306;11.350;2023-06-22T15:23:16;96024.50;;;32.09;37.76
596;BME280;19946;49.306;11.350;2023-06-22T15:26:17;96061.41;;;32.67;37.66
596;BME280;19946;49.306;11.350;2023-06-22T15:29:17;96012.84;;;31.85;37.46
596;BME280;19946;49.306;11.350;2023-06-22T15:32:17;96033.84;;;32.61;37.06
596;BME280;19946;49.306;11.350;2023-06-22T15:35:18;96025.63;;;32.52;36.64
596;BME280;19946;49.306;11.350;2023-06-22T15:38:18;96033.72;;;32.81;36.16
596;BME280;19946;49.306;11.350;2023-06-22T15:41:19;96016.72;;;32.96;38.47
596;BME280;19946;49.306;11.350;2023-06-22T15:44:20;96008.09;;;32.99;36.87
596;BME280;19946;49.306;11.350;2023-06-22T15:47:20;96000.34;;;32.97;38.36
596;BME280;19946;49.306;11.350;2023-06-22T15:50:22;95980.88;;;33.11;37.76
596;BME280;19946;49.306;11.350;2023-06-22T15:53:22;95957.13;;;32.70;37.53
596;BME280;19946;49.306;11.350;2023-06-22T15:56:22;95947.19;;;32.76;37.60
596;BME280;19946;49.306;11.350;2023-06-22T15:59:25;95975.34;;;32.68;40.79
596;BME280;19946;49.306;11.350;2023-06-22T16:02:25;95973.38;;;32.06;37.66
596;BME280;19946;49.306;11.350;2023-06-22T16:05:26;95951.81;;;31.82;38.71
596;BME280;19946;49.306;11.350;2023-06-22T16:08:27;95949.38;;;31.85;39.96
596;BME280;19946;49.306;11.350;2023-06-22T16:11:28;95949.78;;;31.64;38.14